Time;durP1;ratioP1;P1;durP2;ratioP2;P2;SDS_P1;SDS_P2;PMS_P1;PMS_P2;Temp;Humidity;BMP_temperature;BMP_pressure;BME280_temperature;BME280_humidity;BME280_pressure;Samples;Min_cycle;Max_cycle;Signal;HPM_P1;HPM_P2
2022/05/28 00:00:40;;;;;;;8.20;4.95;;;;;;;16.58;68.17;100203.41;1758619;81;20853;-88
2022/05/28 00:03:08;;;;;;;4.40;3.70;;;;;;;16.56;68.20;100203.17;1758766;81;20876;-83
2022/05/28 00:05:35;;;;;;;4.60;3.67;;;;;;;16.53;68.24;100202.14;1720568;83;20923;-87
2022/05/28 00:08:02;;;;;;;5.80;3.60;;;;;;;16.50;68.28;100200.62;1725347;83;21014;-86
2022/05/28 00:10:29;;;;;;;3.80;3.50;;;;;;;16.46;68.34;100197.90;1725541;83;21197;-85
2022/05/28 00:12:57;;;;;;;5.22;3.60;;;;;;;16.44;68.37;100189.27;1725261;83;20864;-88
2022/05/28 00:15:28;;;;;;;4.05;3.65;;;;;;;16.41;68.43;100180.75;1725428;83;20974;-87
2022/05/28 00:17:58;;;;;;;4.00;3.12;;;;;;;16.36;68.46;100173.23;1725332;81;20950;-90
2022/05/28 00:20:28;;;;;;;4.75;3.30;;;;;;;16.33;68.49;100171.71;1725629;83;20982;-88
2022/05/28 00:22:55;;;;;;;3.35;3.05;;;;;;;16.30;68.57;100172.50;1725155;83;21239;-88
2022/05/28 00:25:23;;;;;;;3.92;3.08;;;;;;;16.27;68.58;100165.66;1725231;82;21417;-87
2022/05/28 00:27:51;;;;;;;3.75;2.60;;;;;;;16.24;68.54;100163.30;1725183;83;20891;-88
2022/05/28 00:30:19;;;;;;;5.28;3.10;;;;;;;16.22;68.56;100166.56;1725096;81;20915;-89
2022/05/28 00:32:48;;;;;;;3.83;3.35;;;;;;;16.21;68.56;100166.70;1725381;83;20889;-88
2022/05/28 00:35:18;;;;;;;5.15;3.20;;;;;;;16.18;68.53;100163.84;1725357;83;21315;-89
2022/05/28 00:37:46;;;;;;;4.58;2.72;;;;;;;16.16;68.52;100157.39;1697580;83;20958;-87
2022/05/28 00:40:23;;;;;;;4.58;3.30;;;;;;;16.15;68.48;100158.84;1727135;83;20946;-89
2022/05/28 00:42:50;;;;;;;3.37;2.65;;;;;;;16.13;68.45;100163.44;1728474;81;20911;-87
2022/05/28 00:45:18;;;;;;;3.35;2.85;;;;;;;16.11;68.44;100160.09;1727648;83;20880;-85
2022/05/28 00:47:49;;;;;;;4.25;2.77;;;;;;;16.10;68.45;100154.47;1727559;81;21221;-84
2022/05/28 00:50:16;;;;;;;3.90;2.90;;;;;;;16.06;68.47;100159.19;1726255;81;21389;-86
2022/05/28 00:52:44;;;;;;;4.62;2.58;;;;;;;16.05;68.48;100163.29;1714707;83;20960;-84
2022/05/28 00:55:12;;;;;;;2.92;2.72;;;;;;;16.01;68.46;100154.81;1710166;84;20900;-87
2022/05/28 00:57:40;;;;;;;3.95;2.98;;;;;;;16.00;68.45;100150.98;1709929;82;20888;-87
2022/05/28 01:00:11;;;;;;;2.90;2.20;;;;;;;15.98;68.28;100145.81;1709878;82;21144;-88
2022/05/28 01:02:55;;;;;;;6.83;2.85;;;;;;;15.96;68.37;100154.38;1709735;82;20920;-87
2022/05/28 01:05:40;;;;;;;3.70;2.55;;;;;;;15.95;68.39;100155.36;1703846;84;20989;-88
2022/05/28 01:08:34;;;;;;;3.90;2.73;;;;;;;15.92;68.33;100160.44;1677156;85;21253;-84
2022/05/28 01:11:16;;;;;;;5.05;3.20;;;;;;;15.91;68.32;100152.64;1676890;85;21275;-87
2022/05/28 01:14:23;;;;;;;2.80;2.52;;;;;;;15.89;68.31;100156.73;1676890;85;21238;-87
2022/05/28 01:16:57;;;;;;;2.65;2.05;;;;;;;15.88;68.31;100148.95;1676772;85;20909;-88
2022/05/28 01:19:45;;;;;;;4.17;2.52;;;;;;;15.86;68.27;100157.52;1676820;85;21036;-88
2022/05/28 01:22:57;;;;;;;5.20;3.02;;;;;;;15.84;68.23;100151.52;1676558;85;21501;-89
2022/05/28 01:25:51;;;;;;;5.25;2.92;;;;;;;15.82;68.32;100150.33;1676955;85;20980;-88
2022/05/28 01:28:20;;;;;;;4.20;2.30;;;;;;;15.79;68.25;100151.11;1676476;85;21215;-87
2022/05/28 01:30:47;;;;;;;2.45;2.27;;;;;;;15.77;68.32;100135.37;1676495;85;20885;-88
2022/05/28 01:33:15;;;;;;;2.67;2.47;;;;;;;15.75;68.28;100146.08;1676737;85;20961;-87
2022/05/28 01:35:42;;;;;;;5.28;3.17;;;;;;;15.73;68.31;100145.37;1676525;85;22024;-87
2022/05/28 01:38:11;;;;;;;6.08;2.52;;;;;;;15.72;68.34;100137.61;1676840;85;21056;-89
2022/05/28 01:40:40;;;;;;;5.35;2.65;;;;;;;15.71;68.36;100142.53;1654362;85;21179;-88
2022/05/28 01:43:10;;;;;;;4.95;2.77;;;;;;;15.70;68.39;100130.27;1690083;84;21450;-88
2022/05/28 01:45:39;;;;;;;2.85;2.25;;;;;;;15.69;68.40;100141.80;1693836;84;21431;-88
2022/05/28 01:48:06;;;;;;;4.80;2.83;;;;;;;15.68;68.41;100140.96;1676166;84;20996;-88
2022/05/28 01:50:42;;;;;;;4.58;2.40;;;;;;;15.68;68.43;100139.64;1693909;84;20933;-87
2022/05/28 01:53:10;;;;;;;3.85;2.30;;;;;;;15.67;68.50;100141.09;1693861;84;21139;-87
2022/05/28 01:55:42;;;;;;;5.53;2.80;;;;;;;15.67;68.53;100141.09;1693748;84;20902;-87
2022/05/28 01:58:09;;;;;;;4.62;2.33;;;;;;;15.67;68.52;100130.05;1694694;84;20961;-87
2022/05/28 02:00:37;;;;;;;4.10;2.47;;;;;;;15.68;68.46;100135.67;1694064;84;20934;-87
2022/05/28 02:03:04;;;;;;;7.33;2.45;;;;;;;15.71;68.45;100138.56;1693845;84;20941;-87
2022/05/28 02:05:32;;;;;;;7.00;2.62;;;;;;;15.72;68.42;100127.86;1693889;84;20941;-87
2022/05/28 02:07:59;;;;;;;4.20;2.42;;;;;;;15.74;68.32;100133.84;1693666;84;20901;-87
2022/05/28 02:10:26;;;;;;;3.87;2.27;;;;;;;15.78;68.28;100138.36;1693759;84;20898;-89
2022/05/28 02:13:08;;;;;;;4.40;2.35;;;;;;;15.80;68.23;100139.05;1693778;84;21555;-87
2022/05/28 02:15:55;;;;;;;8.33;2.98;;;;;;;15.82;68.15;100158.76;1693769;84;21458;-88
2022/05/28 02:18:36;;;;;;;2.33;2.12;;;;;;;15.84;68.17;100166.89;1684426;84;21153;-88
2022/05/28 02:21:20;;;;;;;3.08;2.62;;;;;;;15.85;68.09;100192.38;1693635;84;21407;-85
2022/05/28 02:23:55;;;;;;;2.75;2.52;;;;;;;15.88;68.04;100201.84;1693796;84;21415;-88
2022/05/28 02:26:39;;;;;;;4.92;2.90;;;;;;;15.90;68.03;100217.09;1693771;84;20942;-87
2022/05/28 02:29:06;;;;;;;4.37;2.20;;;;;;;15.93;68.00;100228.70;1694188;84;20941;-86
2022/05/28 02:31:33;;;;;;;5.10;2.33;;;;;;;15.93;68.00;100232.18;1693696;84;21116;-87
2022/05/28 02:34:00;;;;;;;2.98;2.37;;;;;;;15.93;67.94;100238.80;1693851;84;20862;-88
2022/05/28 02:36:28;;;;;;;2.62;2.27;;;;;;;15.93;67.98;100241.44;1694003;84;20950;-88
2022/05/28 02:38:55;;;;;;;5.67;2.50;;;;;;;15.92;68.08;100241.59;1694216;84;20945;-85
2022/05/28 02:41:23;;;;;;;6.45;3.02;;;;;;;15.89;68.17;100241.84;1693981;84;20945;-88
2022/05/28 02:43:49;;;;;;;4.12;2.40;;;;;;;15.88;68.28;100241.52;1694129;84;21592;-87
2022/05/28 02:46:16;;;;;;;2.85;2.40;;;;;;;15.87;68.34;100253.05;1693867;84;20993;-87
2022/05/28 02:48:43;;;;;;;5.42;2.60;;;;;;;15.87;68.49;100253.87;1693763;84;21530;-87
2022/05/28 02:51:12;;;;;;;7.30;2.42;;;;;;;15.86;68.65;100250.89;1693604;84;20985;-88
2022/05/28 02:53:39;;;;;;;2.62;2.02;;;;;;;15.86;68.77;100252.21;1693731;84;20866;-86
2022/05/28 02:56:08;;;;;;;3.30;2.70;;;;;;;15.88;68.87;100246.80;1693725;84;21357;-87
2022/05/28 02:58:35;;;;;;;3.92;2.65;;;;;;;15.90;69.02;100258.08;1693738;84;20941;-87
2022/05/28 03:01:03;;;;;;;2.83;2.30;;;;;;;15.93;69.08;100258.63;1693836;84;21033;-87
2022/05/28 03:03:31;;;;;;;3.92;2.52;;;;;;;15.98;69.12;100260.86;1693618;84;21432;-86
2022/05/28 03:05:58;;;;;;;5.30;2.12;;;;;;;16.05;69.13;100253.22;1693740;84;20938;-88
2022/05/28 03:08:25;;;;;;;3.83;2.40;;;;;;;16.11;69.06;100252.68;1693707;84;21130;-86
2022/05/28 03:10:53;;;;;;;4.03;2.60;;;;;;;16.16;68.99;100262.36;1693804;84;21009;-85
2022/05/28 03:13:19;;;;;;;4.37;2.95;;;;;;;16.20;68.93;100258.47;1693615;84;20910;-86
2022/05/28 03:15:46;;;;;;;3.98;2.45;;;;;;;16.26;68.90;100257.92;1693557;84;20961;-87
2022/05/28 03:18:13;;;;;;;2.72;2.52;;;;;;;16.30;68.80;100256.69;1693687;84;20992;-88
2022/05/28 03:20:42;;;;;;;5.22;2.65;;;;;;;16.35;68.72;100257.09;1693805;84;21899;-85
2022/05/28 03:23:09;;;;;;;4.87;2.65;;;;;;;16.40;68.65;100254.03;1693516;84;20945;-86
2022/05/28 03:25:37;;;;;;;5.12;2.77;;;;;;;16.45;68.54;100273.00;1693812;84;21454;-88
2022/05/28 03:28:04;;;;;;;6.22;2.72;;;;;;;16.49;68.46;100270.89;1693624;84;20942;-87
2022/05/28 03:30:31;;;;;;;4.53;2.70;;;;;;;16.51;68.40;100269.77;1693649;84;20913;-88
2022/05/28 03:32:58;;;;;;;4.17;2.52;;;;;;;16.55;68.37;100257.94;1693792;84;21985;-87
2022/05/28 03:35:24;;;;;;;7.78;3.02;;;;;;;16.62;68.31;100253.41;1694084;84;20977;-87
2022/05/28 03:37:51;;;;;;;3.08;2.85;;;;;;;16.69;68.18;100250.05;1693722;84;20870;-88
2022/05/28 03:40:18;;;;;;;4.53;3.22;;;;;;;16.76;67.96;100250.32;1693599;84;20914;-86
2022/05/28 03:42:48;;;;;;;4.50;3.60;;;;;;;16.81;67.90;100237.55;1693541;84;21423;-86
2022/05/28 03:45:16;;;;;;;7.80;2.55;;;;;;;16.91;67.64;100235.70;1693735;84;21130;-88
2022/05/28 03:47:44;;;;;;;5.95;2.30;;;;;;;16.97;67.51;100232.48;1693566;84;20949;-87
2022/05/28 03:50:10;;;;;;;3.35;2.45;;;;;;;17.05;67.27;100237.08;1693607;84;20930;-87
2022/05/28 03:52:38;;;;;;;4.12;2.62;;;;;;;17.12;67.12;100250.56;1693506;84;21359;-87
2022/05/28 03:55:06;;;;;;;5.55;3.15;;;;;;;17.17;66.91;100253.14;1693741;84;20921;-87
2022/05/28 03:57:32;;;;;;;4.80;2.65;;;;;;;17.20;66.84;100247.54;1693831;84;21250;-86
2022/05/28 03:59:59;;;;;;;6.30;2.92;;;;;;;17.26;66.72;100255.92;1693632;84;20855;-87
2022/05/28 04:02:27;;;;;;;5.42;3.37;;;;;;;17.30;66.65;100260.78;1693758;84;20913;-88
2022/05/28 04:04:53;;;;;;;3.40;2.33;;;;;;;17.38;66.58;100253.42;1693538;84;20980;-87
2022/05/28 04:07:21;;;;;;;4.55;2.27;;;;;;;17.52;66.48;100257.41;1693839;84;20945;-88
2022/05/28 04:09:49;;;;;;;7.12;2.98;;;;;;;17.67;66.11;100255.12;1693614;84;21290;-89
2022/05/28 04:12:15;;;;;;;7.28;2.92;;;;;;;17.80;65.65;100251.63;1693672;84;21477;-85
2022/05/28 04:14:44;;;;;;;5.58;2.52;;;;;;;17.93;65.29;100252.64;1693841;84;21406;-86
2022/05/28 04:17:12;;;;;;;6.33;3.08;;;;;;;18.10;64.97;100252.34;1694108;84;20949;-87
2022/05/28 04:19:39;;;;;;;4.20;2.62;;;;;;;18.27;64.33;100250.17;1693930;84;20862;-87
2022/05/28 04:22:06;;;;;;;5.80;3.05;;;;;;;18.46;63.84;100260.32;1693775;84;21143;-88
2022/05/28 04:24:33;;;;;;;4.28;3.08;;;;;;;18.63;63.56;100264.30;1693779;84;21473;-88
2022/05/28 04:27:00;;;;;;;6.33;2.52;;;;;;;18.88;63.05;100259.20;1693775;84;20894;-88
2022/05/28 04:29:27;;;;;;;6.17;3.10;;;;;;;19.16;62.36;100267.84;1693840;84;20910;-86
2022/05/28 04:31:54;;;;;;;5.70;2.85;;;;;;;19.53;61.66;100269.40;1693693;84;21029;-85
2022/05/28 04:34:20;;;;;;;7.25;3.33;;;;;;;19.99;60.64;100258.48;1693667;84;21591;-86
2022/05/28 04:36:47;;;;;;;7.55;2.90;;;;;;;20.52;59.33;100263.90;1693691;84;20910;-87
2022/05/28 04:39:14;;;;;;;5.00;2.70;;;;;;;21.09;57.75;100265.72;1693859;84;20914;-87
2022/05/28 04:41:41;;;;;;;7.30;2.60;;;;;;;21.65;56.20;100275.10;1694037;84;21431;-85
2022/05/28 04:44:08;;;;;;;4.17;2.42;;;;;;;22.22;54.60;100274.86;1693816;84;21395;-86
2022/05/28 04:46:36;;;;;;;5.17;2.67;;;;;;;22.66;53.08;100274.73;1693979;84;21349;-86
2022/05/28 04:49:02;;;;;;;5.97;3.47;;;;;;;22.99;52.00;100276.61;1693687;84;21028;-87
2022/05/28 04:51:29;;;;;;;3.30;3.00;;;;;;;23.17;51.23;100280.31;1693881;84;20934;-87
2022/05/28 04:53:56;;;;;;;5.55;3.25;;;;;;;23.35;50.38;100276.77;1693872;84;21005;-87
2022/05/28 04:56:23;;;;;;;7.30;4.60;;;;;;;23.46;50.21;100277.33;1693817;84;21032;-87
2022/05/28 04:58:50;;;;;;;6.00;5.05;;;;;;;23.58;49.71;100275.84;1693915;84;21390;-88
2022/05/28 05:01:19;;;;;;;6.80;5.28;;;;;;;23.62;49.14;100273.12;1693930;84;20949;-88
2022/05/28 05:03:46;;;;;;;7.37;5.35;;;;;;;23.61;48.88;100275.97;1693928;84;20953;-88
2022/05/28 05:06:13;;;;;;;6.25;4.30;;;;;;;23.49;48.98;100283.12;1693867;84;20977;-87
2022/05/28 05:08:40;;;;;;;7.03;4.05;;;;;;;23.44;49.29;100281.52;1694019;84;20886;-86
2022/05/28 05:11:07;;;;;;;5.42;4.15;;;;;;;23.43;49.57;100281.70;1693935;84;21851;-84
2022/05/28 05:13:34;;;;;;;6.22;3.55;;;;;;;23.54;49.47;100283.43;1693637;84;20969;-85
2022/05/28 05:16:00;;;;;;;11.28;4.45;;;;;;;23.82;48.92;100280.09;1693915;84;20961;-86
2022/05/28 05:18:27;;;;;;;7.75;4.55;;;;;;;24.10;48.58;100284.25;1675951;84;20997;-87
2022/05/28 05:20:54;;;;;;;5.83;4.55;;;;;;;24.34;48.05;100293.77;1694289;84;20937;-87
2022/05/28 05:23:20;;;;;;;7.05;4.17;;;;;;;24.60;47.53;100291.08;1693946;84;21215;-86
2022/05/28 05:25:47;;;;;;;6.80;4.90;;;;;;;24.93;47.18;100290.55;1693899;84;20941;-86
2022/05/28 05:28:14;;;;;;;10.32;6.72;;;;;;;25.34;46.42;100290.64;1693963;82;20942;-85
2022/05/28 05:30:41;;;;;;;10.45;7.72;;;;;;;25.64;45.62;100289.08;1693872;84;20929;-87
2022/05/28 05:33:07;;;;;;;8.80;6.65;;;;;;;25.94;44.65;100293.67;1693936;84;20906;-86
2022/05/28 05:35:34;;;;;;;10.70;7.05;;;;;;;26.14;44.06;100307.17;1694082;84;21149;-88
2022/05/28 05:38:05;;;;;;;8.73;6.37;;;;;;;26.25;43.70;100306.59;1694069;84;20870;-88
2022/05/28 05:40:29;;;;;;;11.83;6.15;;;;;;;26.25;43.48;100304.42;1693684;84;21406;-87
2022/05/28 05:42:58;;;;;;;10.90;5.80;;;;;;;26.14;43.44;100310.39;1693607;84;21551;-88
2022/05/28 05:45:24;;;;;;;9.80;6.67;;;;;;;25.99;43.54;100309.19;1694177;84;21000;-87
2022/05/28 05:47:52;;;;;;;8.10;7.15;;;;;;;25.87;43.60;100307.56;1693946;84;21161;-87
2022/05/28 05:50:19;;;;;;;14.78;8.43;;;;;;;25.77;43.87;100313.32;1693913;84;21074;-88
2022/05/28 05:52:46;;;;;;;14.75;9.03;;;;;;;25.73;44.02;100317.95;1693971;84;20918;-90
2022/05/28 05:55:13;;;;;;;14.63;11.48;;;;;;;25.65;43.94;100321.61;1696106;84;20957;-89
2022/05/28 05:57:39;;;;;;;20.60;12.78;;;;;;;25.58;44.11;100320.75;1699385;84;20929;-88
2022/05/28 06:00:08;;;;;;;17.07;13.15;;;;;;;25.52;44.00;100328.24;1699524;84;21818;-87
2022/05/28 06:02:36;;;;;;;19.37;14.18;;;;;;;25.60;44.64;100322.20;1699433;84;20965;-88
2022/05/28 06:05:04;;;;;;;20.92;15.20;;;;;;;25.75;44.14;100323.95;1699563;84;21055;-87
2022/05/28 06:07:31;;;;;;;20.50;15.25;;;;;;;25.98;43.66;100317.77;1699613;84;20909;-88
2022/05/28 06:09:58;;;;;;;23.32;15.83;;;;;;;26.17;42.69;100305.45;1699301;84;20945;-87
2022/05/28 06:12:25;;;;;;;23.32;14.83;;;;;;;26.21;42.21;100301.33;1699522;84;21148;-89
2022/05/28 06:14:52;;;;;;;15.48;12.58;;;;;;;26.28;41.47;100291.94;1699851;84;20941;-88
2022/05/28 06:17:19;;;;;;;22.35;13.93;;;;;;;26.34;41.24;100287.06;1699558;84;21406;-89
2022/05/28 06:19:46;;;;;;;14.80;11.88;;;;;;;26.27;41.44;100284.89;1699394;84;21047;-87
2022/05/28 06:22:13;;;;;;;14.70;11.45;;;;;;;26.17;41.30;100283.12;1699514;84;21528;-89
2022/05/28 06:24:40;;;;;;;13.88;10.05;;;;;;;26.11;41.31;100284.75;1699492;84;21133;-88
2022/05/28 06:27:07;;;;;;;16.60;11.28;;;;;;;26.20;41.57;100284.05;1699660;82;20997;-89
2022/05/28 06:29:34;;;;;;;15.05;10.45;;;;;;;26.22;41.54;100288.71;1701264;84;20937;-89
2022/05/28 06:32:00;;;;;;;12.40;8.05;;;;;;;26.28;41.14;100291.94;1702158;84;20941;-87
2022/05/28 06:34:27;;;;;;;12.25;8.65;;;;;;;26.25;40.67;100293.14;1701654;84;20874;-86
2022/05/28 06:36:55;;;;;;;12.07;9.65;;;;;;;26.23;40.36;100301.95;1701417;84;21470;-86
2022/05/28 06:39:22;;;;;;;12.80;9.23;;;;;;;26.25;40.73;100304.42;1700764;84;20945;-88
2022/05/28 06:41:49;;;;;;;13.38;8.15;;;;;;;26.54;41.01;100302.42;1700149;84;20887;-88
2022/05/28 06:44:17;;;;;;;10.30;7.97;;;;;;;26.94;40.17;100302.48;1699983;84;21078;-89
2022/05/28 06:46:43;;;;;;;10.03;8.05;;;;;;;27.41;39.88;100300.09;1699923;84;21529;-88
2022/05/28 06:49:10;;;;;;;6.58;4.75;;;;;;;27.85;39.28;100290.42;1699522;84;21613;-87
2022/05/28 06:51:37;;;;;;;8.30;5.35;;;;;;;28.30;38.20;100299.02;1699548;84;20949;-88
2022/05/28 06:54:05;;;;;;;14.10;5.03;;;;;;;28.71;37.71;100301.27;1672400;84;21943;-87
2022/05/28 06:56:32;;;;;;;5.45;4.15;;;;;;;29.07;37.70;100304.30;1695383;84;20949;-89
2022/05/28 06:58:59;;;;;;;6.87;4.92;;;;;;;29.49;36.71;100314.81;1694016;84;20902;-87
2022/05/28 07:01:25;;;;;;;8.25;5.67;;;;;;;29.90;35.66;100309.30;1693791;84;21227;-87
2022/05/28 07:03:52;;;;;;;9.10;6.33;;;;;;;30.26;35.32;100307.56;1694118;84;20918;-87
2022/05/28 07:06:19;;;;;;;10.20;5.80;;;;;;;30.61;34.64;100320.39;1693881;84;20870;-90
2022/05/28 07:08:47;;;;;;;11.15;5.08;;;;;;;31.00;34.69;100318.14;1694018;84;20945;-86
2022/05/28 07:11:17;;;;;;;10.48;6.42;;;;;;;31.25;33.63;100321.96;1693897;84;20961;-85
2022/05/28 07:13:45;;;;;;;13.83;8.53;;;;;;;31.28;32.91;100324.73;1693857;84;20890;-86
2022/05/28 07:16:12;;;;;;;11.10;8.70;;;;;;;31.02;32.85;100315.20;1693806;84;20949;-89
2022/05/28 07:18:40;;;;;;;11.75;8.73;;;;;;;30.60;33.30;100318.75;1693913;84;20953;-89
2022/05/28 07:21:08;;;;;;;14.83;8.98;;;;;;;30.14;34.03;100318.31;1693919;84;20953;-89
2022/05/28 07:23:35;;;;;;;12.47;9.08;;;;;;;29.74;34.69;100308.53;1694079;84;20906;-88
2022/05/28 07:26:06;;;;;;;14.13;8.55;;;;;;;29.43;35.25;100320.28;1693987;84;21145;-89
2022/05/28 07:28:34;;;;;;;9.13;8.08;;;;;;;29.17;35.66;100317.31;1694165;84;21263;-89
2022/05/28 07:31:13;;;;;;;10.63;7.70;;;;;;;29.08;36.05;100309.98;1694619;84;20934;-90
2022/05/28 07:33:43;;;;;;;13.95;6.35;;;;;;;29.10;36.33;100316.02;1693978;84;20902;-88
2022/05/28 07:36:13;;;;;;;5.67;5.08;;;;;;;29.22;35.79;100321.02;1694104;84;20937;-91
2022/05/28 07:38:41;;;;;;;6.28;4.60;;;;;;;29.47;35.06;100325.02;1694410;84;21263;-88
2022/05/28 07:41:14;;;;;;;5.00;4.50;;;;;;;29.49;35.07;100317.52;1694442;81;20973;-89
2022/05/28 07:43:41;;;;;;;6.72;4.47;;;;;;;29.41;34.95;100319.15;1694367;84;20905;-88
2022/05/28 07:46:17;;;;;;;12.18;4.70;;;;;;;29.17;35.00;100315.96;1694302;84;20917;-89
2022/05/28 07:48:44;;;;;;;3.58;3.25;;;;;;;28.99;35.87;100315.36;1694525;84;21008;-89
2022/05/28 07:51:11;;;;;;;4.03;3.20;;;;;;;28.81;35.63;100325.58;1694297;84;21199;-88
2022/05/28 07:53:38;;;;;;;6.30;3.75;;;;;;;28.61;35.84;100329.24;1694185;84;20898;-90
2022/05/28 07:56:05;;;;;;;5.10;3.02;;;;;;;28.40;36.16;100328.23;1694118;84;20953;-86
2022/05/28 07:58:32;;;;;;;5.47;3.42;;;;;;;28.13;36.50;100335.11;1694180;84;20985;-88
2022/05/28 08:01:00;;;;;;;5.30;3.27;;;;;;;28.07;36.80;100339.48;1694250;84;21021;-90
2022/05/28 08:03:29;;;;;;;8.45;6.97;;;;;;;28.11;37.14;100340.70;1694723;84;21172;-88
2022/05/28 08:05:58;;;;;;;11.20;9.38;;;;;;;28.06;37.38;100343.75;1694326;84;20910;-89
2022/05/28 08:08:26;;;;;;;10.00;8.58;;;;;;;27.94;37.71;100341.41;1694549;84;20941;-90
2022/05/28 08:10:54;;;;;;;10.20;8.45;;;;;;;27.75;37.92;100349.81;1694503;84;20996;-90
2022/05/28 08:13:23;;;;;;;12.20;7.97;;;;;;;27.54;38.02;100349.05;1694397;81;20901;-89
2022/05/28 08:15:51;;;;;;;12.95;7.45;;;;;;;27.36;38.71;100344.83;1694432;84;21931;-89
2022/05/28 08:18:21;;;;;;;10.82;8.90;;;;;;;27.20;39.19;100347.41;1694374;84;20945;-90
2022/05/28 08:23:33;;;;;;;8.85;6.90;;;;;;;26.78;39.58;100346.25;1694401;84;21056;-90
2022/05/28 08:26:00;;;;;;;7.83;5.70;;;;;;;26.56;40.04;100353.66;1694572;84;21087;-91
2022/05/28 08:28:27;;;;;;;7.87;5.22;;;;;;;26.37;40.44;100356.59;1694664;84;21442;-89
2022/05/28 08:30:54;;;;;;;7.70;4.25;;;;;;;26.16;40.47;100354.02;1694246;84;20922;-90
2022/05/28 08:33:22;;;;;;;9.13;5.08;;;;;;;25.93;41.31;100357.03;1694474;84;20989;-90
2022/05/28 08:35:51;;;;;;;4.42;3.72;;;;;;;25.73;41.62;100357.72;1694533;84;20933;-89
2022/05/28 08:38:20;;;;;;;3.83;2.70;;;;;;;25.50;42.22;100358.48;1694458;83;20914;-91
2022/05/28 08:41:14;;;;;;;1.80;1.62;;;;;;;25.31;42.77;100363.53;1694416;84;21260;-89
2022/05/28 08:43:50;;;;;;;2.10;0.60;;;;;;;25.13;42.77;100371.20;1694240;84;20941;-87
2022/05/28 08:46:17;;;;;;;1.17;0.70;;;;;;;25.07;42.80;100362.06;1693546;84;20922;-87
2022/05/28 08:48:52;;;;;;;1.55;0.65;;;;;;;25.27;42.88;100360.09;1694321;84;21482;-88
2022/05/28 08:51:42;;;;;;;3.67;0.30;;;;;;;25.43;42.54;100356.61;1694323;84;20945;-89
2022/05/28 08:54:20;;;;;;;2.25;0.78;;;;;;;25.65;42.60;100356.52;1694170;84;21250;-89
2022/05/28 08:56:47;;;;;;;6.58;2.27;;;;;;;26.04;41.99;100370.72;1691597;84;21008;-89
2022/05/28 08:59:34;;;;;;;6.05;2.15;;;;;;;26.23;40.97;100375.03;1694384;84;21048;-88
2022/05/28 09:02:01;;;;;;;2.37;0.80;;;;;;;26.16;39.57;100371.49;1694438;84;21320;-89
2022/05/28 09:04:33;;;;;;;2.08;0.50;;;;;;;25.81;39.82;100388.46;1694545;84;20906;-89
2022/05/28 09:07:05;;;;;;;1.37;0.72;;;;;;;25.59;40.09;100394.91;1677106;84;21230;-88
2022/05/28 09:09:47;;;;;;;0.55;0.55;;;;;;;25.35;40.62;100389.48;1694139;84;20862;-89
2022/05/28 09:12:34;;;;;;;2.98;1.05;;;;;;;25.07;40.69;100398.80;1694239;84;21040;-89
2022/05/28 09:15:03;;;;;;;1.20;0.70;;;;;;;24.79;41.19;100396.91;1694657;84;21008;-89
2022/05/28 09:17:38;;;;;;;0.78;0.50;;;;;;;24.57;41.84;100394.70;1694382;84;21403;-90
2022/05/28 09:20:16;;;;;;;0.68;0.68;;;;;;;24.43;41.83;100399.55;1694450;84;21150;-88
2022/05/28 09:22:43;;;;;;;1.12;0.65;;;;;;;24.20;42.25;100403.19;1694237;84;20969;-90
2022/05/28 09:25:10;;;;;;;0.65;0.60;;;;;;;24.04;42.34;100399.37;1699760;84;20946;-89
2022/05/28 09:28:19;;;;;;;0.80;0.55;;;;;;;23.87;42.50;100406.75;1694260;84;20918;-89
2022/05/28 09:30:57;;;;;;;1.07;0.60;;;;;;;23.72;43.18;100402.20;1694565;84;20940;-89
2022/05/28 09:33:54;;;;;;;3.30;0.93;;;;;;;23.62;43.45;100411.51;1694228;84;21157;-90
2022/05/28 09:36:57;;;;;;;1.02;0.80;;;;;;;23.66;43.42;100419.50;1694164;83;20905;-89
2022/05/28 09:39:37;;;;;;;1.57;0.68;;;;;;;23.69;43.05;100419.95;1694652;84;21021;-89
2022/05/28 09:42:22;;;;;;;1.17;1.07;;;;;;;23.77;43.32;100421.77;1694204;84;20918;-89
2022/05/28 09:45:16;;;;;;;3.67;1.42;;;;;;;23.87;43.22;100428.17;1693875;84;20909;-89
2022/05/28 09:47:46;;;;;;;0.90;0.65;;;;;;;23.91;42.43;100426.28;1694563;84;21154;-85
2022/05/28 09:50:20;;;;;;;2.55;0.95;;;;;;;23.88;42.67;100428.00;1694117;84;21052;-88
2022/05/28 09:55:57;;;;;;;4.22;1.05;;;;;;;23.62;42.52;100428.39;1694181;84;20933;-88
2022/05/28 09:58:28;;;;;;;2.55;0.95;;;;;;;23.36;42.58;100426.11;1694216;84;20984;-88
2022/05/28 10:01:20;;;;;;;1.37;1.17;;;;;;;23.14;43.04;100421.96;1694313;84;21676;-88
2022/05/28 10:06:37;;;;;;;2.95;1.10;;;;;;;22.85;43.74;100419.11;1694333;84;20981;-90
2022/05/28 10:09:20;;;;;;;1.15;1.02;;;;;;;22.81;44.17;100417.31;1694321;84;20946;-86
2022/05/28 10:12:00;;;;;;;2.17;1.00;;;;;;;22.79;44.23;100409.12;1694231;84;20957;-90
2022/05/28 10:14:31;;;;;;;2.35;0.85;;;;;;;22.73;43.85;100412.01;1692389;84;21111;-87
2022/05/28 10:17:03;;;;;;;0.98;0.72;;;;;;;22.61;43.72;100405.38;1694104;84;20973;-86
2022/05/28 10:19:35;;;;;;;1.37;0.85;;;;;;;22.44;44.12;100408.16;1694052;84;20913;-87
2022/05/28 10:22:04;;;;;;;2.35;1.02;;;;;;;22.37;44.59;100409.01;1693738;84;20953;-87
2022/05/28 10:24:51;;;;;;;41.13;37.25;;;;;;;22.34;44.64;100410.19;1695050;84;20898;-86
2022/05/28 10:27:35;;;;;;;10.40;9.45;;;;;;;22.33;44.85;100413.89;1694797;84;21161;-88
2022/05/28 10:30:09;;;;;;;28.50;25.57;;;;;;;22.30;45.10;100418.25;1695023;84;27843;-88
2022/05/28 10:32:48;;;;;;;1.65;0.93;;;;;;;22.26;45.13;100408.41;1699955;84;21053;-88
2022/05/28 10:35:29;;;;;;;3.42;2.87;;;;;;;22.21;44.84;100404.06;1693952;84;21021;-87
2022/05/28 10:38:24;;;;;;;3.92;3.50;;;;;;;22.16;45.03;100407.73;1694158;84;20984;-88
2022/05/28 10:40:54;;;;;;;3.17;2.87;;;;;;;22.13;45.24;100404.91;1693976;84;21256;-87
2022/05/28 10:43:31;;;;;;;1.50;1.40;;;;;;;22.08;45.54;100403.78;1694056;84;20910;-87
2022/05/28 10:46:12;;;;;;;1.15;0.75;;;;;;;22.06;45.43;100399.94;1694281;84;20878;-89
2022/05/28 10:49:21;;;;;;;1.27;0.80;;;;;;;22.11;45.31;100402.91;1693947;84;20905;-89
2022/05/28 10:52:14;;;;;;;2.83;1.40;;;;;;;22.23;45.51;100408.77;1694347;84;20977;-88
2022/05/28 10:55:04;;;;;;;3.25;0.50;;;;;;;22.50;45.57;100406.13;1694090;84;21781;-88
2022/05/28 10:58:13;;;;;;;0.98;0.72;;;;;;;22.69;45.28;100400.83;1696540;84;20933;-86
2022/05/28 11:01:05;;;;;;;1.95;0.90;;;;;;;22.84;44.45;100398.23;1699601;84;20925;-87
2022/05/28 11:03:50;;;;;;;1.10;0.62;;;;;;;22.90;43.93;100390.84;1685341;84;20977;-87
2022/05/28 11:06:51;;;;;;;4.12;1.17;;;;;;;23.07;43.14;100400.10;1699533;84;21501;-87
2022/05/28 11:09:30;;;;;;;2.90;1.27;;;;;;;23.17;42.73;100406.87;1699721;84;21161;-88
2022/05/28 11:12:28;;;;;;;1.47;0.78;;;;;;;23.25;42.58;100403.80;1699200;84;21000;-87
2022/05/28 11:15:15;;;;;;;1.50;0.78;;;;;;;23.35;42.51;100407.89;1699591;84;21001;-88
2022/05/28 11:18:23;;;;;;;1.00;0.78;;;;;;;23.49;42.44;100404.09;1689048;84;21024;-88
2022/05/28 11:21:15;;;;;;;2.52;1.65;;;;;;;23.63;42.87;100396.58;1689044;84;20937;-89
2022/05/28 11:24:11;;;;;;;7.30;0.78;;;;;;;23.79;41.86;100400.99;1699389;84;21252;-87
2022/05/28 11:26:52;;;;;;;3.27;2.90;;;;;;;23.89;41.95;100393.50;1699339;84;20909;-88
2022/05/28 11:29:39;;;;;;;3.45;1.27;;;;;;;23.94;41.17;100388.41;1699650;84;20886;-88
2022/05/28 11:32:14;;;;;;;2.35;1.00;;;;;;;23.93;40.68;100392.63;1699657;84;20957;-87
2022/05/28 11:34:45;;;;;;;1.57;1.47;;;;;;;23.79;41.09;100399.14;1699558;84;20969;-88
2022/05/28 11:37:18;;;;;;;2.20;0.45;;;;;;;23.66;40.26;100394.07;1699341;84;21075;-89
2022/05/28 11:40:29;;;;;;;2.87;0.68;;;;;;;23.42;40.96;100390.61;1673696;84;21485;-88
2022/05/28 11:43:17;;;;;;;1.35;0.50;;;;;;;23.26;41.21;100394.78;1699478;84;21000;-89
2022/05/28 11:46:19;;;;;;;2.00;0.62;;;;;;;23.14;41.87;100383.17;1673470;84;21442;-86
2022/05/28 11:51:48;;;;;;;1.10;1.00;;;;;;;23.03;42.41;100389.42;1699856;84;21046;-88
2022/05/28 11:54:24;;;;;;;1.27;0.83;;;;;;;23.01;42.32;100390.11;1699397;84;20955;-89
2022/05/28 11:56:53;;;;;;;2.15;0.80;;;;;;;22.96;42.42;100390.62;1700087;84;21014;-88
2022/05/28 11:59:24;;;;;;;1.22;0.60;;;;;;;22.92;42.30;100390.64;1723147;83;20986;-87